createdAt,value
2023-04-03T00:00:12.727Z,41.90
2023-04-03T00:02:39.317Z,41.40
2023-04-03T00:05:05.804Z,41.30
2023-04-03T00:07:32.274Z,41.30
2023-04-03T00:09:58.715Z,41.30
2023-04-03T00:12:25.154Z,41.20
2023-04-03T00:14:51.671Z,41.80
2023-04-03T00:17:18.158Z,41.60
2023-04-03T00:19:44.623Z,40.80
2023-04-03T00:22:11.088Z,41.10
2023-04-03T00:24:37.546Z,41.80
2023-04-03T00:27:04.111Z,41.60
2023-04-03T00:29:30.637Z,41.60
2023-04-03T00:31:57.129Z,41.90
2023-04-03T00:34:23.602Z,41.00
2023-04-03T00:36:50.132Z,41.50
2023-04-03T00:39:16.671Z,41.50
2023-04-03T00:41:43.162Z,41.20
2023-04-03T00:44:09.611Z,40.70
2023-04-03T00:46:36.141Z,40.80
2023-04-03T00:49:02.662Z,41.50
2023-04-03T00:51:29.147Z,40.80
2023-04-03T00:53:55.623Z,40.90
2023-04-03T00:56:22.071Z,40.80
2023-04-03T00:58:48.513Z,41.00
2023-04-03T01:01:15.023Z,41.40
2023-04-03T01:03:41.518Z,41.30
2023-04-03T01:06:07.966Z,41.30
2023-04-03T01:08:34.406Z,40.70
2023-04-03T01:11:00.871Z,41.30
2023-04-03T01:13:27.322Z,41.00
2023-04-03T01:15:53.877Z,40.90
2023-04-03T01:18:20.409Z,40.70
2023-04-03T01:20:46.901Z,40.90
2023-04-03T01:23:13.413Z,41.70
2023-04-03T01:25:39.912Z,41.50
2023-04-03T01:28:06.389Z,40.80
2023-04-03T01:30:32.844Z,40.90
2023-04-03T01:32:59.327Z,40.70
2023-04-03T01:35:25.878Z,41.00
2023-04-03T01:37:52.377Z,41.00
2023-04-03T01:40:18.873Z,40.60
2023-04-03T01:45:12.353Z,40.90
2023-04-03T01:47:38.853Z,40.90
2023-04-03T01:50:05.360Z,41.30
2023-04-03T01:52:31.825Z,40.50
2023-04-03T01:54:58.331Z,40.70
2023-04-03T01:57:24.831Z,40.70
2023-04-03T01:59:51.408Z,40.70
2023-04-03T02:04:44.926Z,40.40
2023-04-03T02:07:11.372Z,40.50
2023-04-03T02:09:37.869Z,40.50
2023-04-03T02:12:04.354Z,40.40
2023-04-03T02:14:30.812Z,40.70
2023-04-03T02:16:57.352Z,40.90
2023-04-03T02:19:23.916Z,41.00
2023-04-03T02:21:50.427Z,40.10
2023-04-03T02:24:16.973Z,41.30
2023-04-03T02:26:43.430Z,40.20
2023-04-03T02:29:09.944Z,40.50
2023-04-03T02:31:36.412Z,40.70
2023-04-03T02:34:02.914Z,40.30
2023-04-03T02:36:31.735Z,40.70
2023-04-03T02:38:58.964Z,40.00
2023-04-03T02:41:25.484Z,40.50
2023-04-03T02:43:51.975Z,40.10
2023-04-03T02:46:18.480Z,40.80
2023-04-03T02:48:45.017Z,40.20
2023-04-03T02:51:11.461Z,40.20
2023-04-03T02:56:04.920Z,40.80
2023-04-03T02:58:31.376Z,40.10
2023-04-03T03:00:57.864Z,40.60
2023-04-03T03:03:24.349Z,40.00
2023-04-03T03:05:50.867Z,40.30
2023-04-03T03:08:17.363Z,40.00
2023-04-03T03:10:43.883Z,40.60
2023-04-03T03:13:10.324Z,40.60
2023-04-03T03:15:36.859Z,40.60
2023-04-03T03:18:03.460Z,40.50
2023-04-03T03:20:29.935Z,40.70
2023-04-03T03:22:56.400Z,40.30
2023-04-03T03:25:22.874Z,40.10
2023-04-03T03:27:49.337Z,39.70
2023-04-03T03:30:15.779Z,39.70
2023-04-03T03:32:42.273Z,39.60
2023-04-03T03:35:08.785Z,39.90
2023-04-03T03:37:35.278Z,40.30
2023-04-03T03:42:28.802Z,39.80
2023-04-03T03:44:55.256Z,40.00
2023-04-03T03:47:21.704Z,39.80
2023-04-03T03:49:48.203Z,41.00
2023-04-03T03:52:14.646Z,39.30
2023-04-03T03:54:41.121Z,39.70
2023-04-03T03:57:07.689Z,39.90
2023-04-03T03:59:34.223Z,39.70
2023-04-03T04:02:00.725Z,39.70
2023-04-03T04:04:27.250Z,40.30
2023-04-03T04:06:53.734Z,40.30
2023-04-03T04:09:20.207Z,39.80
2023-04-03T04:11:46.677Z,39.80
2023-04-03T04:14:13.126Z,40.10
2023-04-03T04:16:39.671Z,40.50
2023-04-03T04:19:07.683Z,40.00
2023-04-03T04:21:35.388Z,39.60
2023-04-03T04:24:01.864Z,39.80
2023-04-03T04:26:28.326Z,40.10
2023-04-03T04:28:54.800Z,39.90
2023-04-03T04:31:21.337Z,40.60
2023-04-03T04:33:47.832Z,40.00
2023-04-03T04:36:14.406Z,40.10
2023-04-03T04:38:40.970Z,40.40
2023-04-03T04:41:07.446Z,39.50
2023-04-03T04:43:33.972Z,40.30
2023-04-03T04:46:00.467Z,39.90
2023-04-03T04:48:26.962Z,40.40
2023-04-03T04:50:53.425Z,40.40
2023-04-03T04:53:19.870Z,40.00
2023-04-03T04:55:46.347Z,40.90
2023-04-03T04:58:12.828Z,39.80
2023-04-03T05:00:39.304Z,40.40
2023-04-03T05:03:05.826Z,40.00
2023-04-03T05:05:32.368Z,40.00
2023-04-03T05:07:58.867Z,39.90
2023-04-03T05:10:25.352Z,39.90
2023-04-03T05:12:51.798Z,39.80
2023-04-03T05:15:18.339Z,40.30
2023-04-03T05:17:44.821Z,39.70
2023-04-03T05:20:11.282Z,40.20
2023-04-03T05:22:37.775Z,39.50
2023-04-03T05:25:04.286Z,40.10
2023-04-03T05:27:30.779Z,39.50
2023-04-03T05:29:57.260Z,39.90
2023-04-03T05:32:23.845Z,39.90
2023-04-03T05:37:17.331Z,40.00
2023-04-03T05:39:44.015Z,40.00
2023-04-03T05:42:10.473Z,40.20
2023-04-03T05:44:36.910Z,40.20
2023-04-03T05:47:03.375Z,39.90
2023-04-03T05:49:29.882Z,40.40
2023-04-03T05:51:56.361Z,40.40
2023-04-03T05:54:22.871Z,40.70
2023-04-03T05:56:49.508Z,40.20
2023-04-03T05:59:15.982Z,39.60
2023-04-03T06:01:42.468Z,40.60
2023-04-03T06:04:09.026Z,40.30
2023-04-03T06:06:35.580Z,40.30
2023-04-03T06:09:03.730Z,40.10
2023-04-03T06:11:30.331Z,40.30
2023-04-03T06:13:56.835Z,40.60
2023-04-03T06:16:23.364Z,40.70
2023-04-03T06:18:49.841Z,40.20
2023-04-03T06:21:16.340Z,40.60
2023-04-03T06:23:42.806Z,40.40
2023-04-03T06:26:09.274Z,40.90
2023-04-03T06:28:35.782Z,40.60
2023-04-03T06:31:02.344Z,40.60
2023-04-03T06:33:28.823Z,41.20
2023-04-03T06:35:55.370Z,41.20
2023-04-03T06:38:21.846Z,40.90
2023-04-03T06:40:48.369Z,40.80
2023-04-03T06:43:14.835Z,41.30
2023-04-03T06:48:08.348Z,41.50
2023-04-03T06:50:34.852Z,41.00
2023-04-03T06:53:01.391Z,41.00
2023-04-03T06:55:27.896Z,40.40
2023-04-03T06:57:54.628Z,40.80
2023-04-03T07:00:21.117Z,40.10
2023-04-03T07:02:47.624Z,40.00
2023-04-03T07:05:14.082Z,40.10
2023-04-03T07:07:40.616Z,39.90
2023-04-03T07:10:07.086Z,40.10
2023-04-03T07:12:33.569Z,39.80
2023-04-03T07:15:00.030Z,39.60
2023-04-03T07:17:26.565Z,39.80
2023-04-03T07:19:53.096Z,40.30
2023-04-03T07:22:19.590Z,40.20
2023-04-03T07:24:46.037Z,39.80
2023-04-03T07:27:12.532Z,40.20
2023-04-03T07:29:39.052Z,39.80
2023-04-03T07:32:05.568Z,39.60
2023-04-03T07:34:32.118Z,39.40
2023-04-03T07:36:58.616Z,40.20
2023-04-03T07:39:25.196Z,39.60
2023-04-03T07:41:51.696Z,39.80
2023-04-03T07:44:19.351Z,39.50
2023-04-03T07:46:45.891Z,40.10
2023-04-03T07:49:12.426Z,39.60
2023-04-03T07:51:38.880Z,39.20
2023-04-03T07:54:05.377Z,39.70
2023-04-03T07:56:31.863Z,40.40
2023-04-03T07:58:58.357Z,40.00
2023-04-03T08:01:24.888Z,39.20
2023-04-03T08:03:51.496Z,39.50
2023-04-03T08:06:21.674Z,39.90
2023-04-03T08:08:52.861Z,40.00
2023-04-03T08:11:19.319Z,39.40
2023-04-03T08:13:45.799Z,39.40
2023-04-03T08:16:12.290Z,40.00
2023-04-03T08:18:38.840Z,40.10
2023-04-03T08:21:05.311Z,39.30
2023-04-03T08:23:31.791Z,39.30
2023-04-03T08:25:58.304Z,38.90
2023-04-03T08:28:24.794Z,39.10
2023-04-03T08:30:51.351Z,39.80
2023-04-03T08:33:17.914Z,39.30
2023-04-03T08:35:44.718Z,39.70
2023-04-03T08:38:11.364Z,39.30
2023-04-03T08:40:37.877Z,40.00
2023-04-03T08:43:04.372Z,39.00
2023-04-03T08:45:30.884Z,39.50
2023-04-03T08:47:57.526Z,39.70
2023-04-03T08:50:24.076Z,39.00
2023-04-03T08:52:50.552Z,39.30
2023-04-03T08:55:17.058Z,39.20
2023-04-03T08:57:43.589Z,39.10
2023-04-03T09:00:10.155Z,38.80
2023-04-03T09:02:36.686Z,39.10
2023-04-03T09:05:03.267Z,39.50
2023-04-03T09:07:29.788Z,39.10
2023-04-03T09:09:56.296Z,39.10
2023-04-03T09:12:22.784Z,39.70
2023-04-03T09:14:49.232Z,38.70
2023-04-03T09:17:15.719Z,39.80
2023-04-03T09:19:42.240Z,39.00
2023-04-03T09:24:35.704Z,39.20
2023-04-03T09:27:02.249Z,39.00
2023-04-03T09:29:28.765Z,39.70
2023-04-03T09:31:55.298Z,39.20
2023-04-03T09:34:21.837Z,39.10
2023-04-03T09:36:48.391Z,39.80
2023-04-03T09:39:14.935Z,39.80
2023-04-03T09:41:41.405Z,39.90
2023-04-03T09:44:07.895Z,40.30
2023-04-03T09:46:34.454Z,39.10
2023-04-03T09:49:08.164Z,39.30
2023-04-03T09:51:35.705Z,40.20
2023-04-03T09:54:02.187Z,39.20
2023-04-03T09:56:28.689Z,39.20
2023-04-03T09:58:55.175Z,39.70
2023-04-03T10:01:21.687Z,40.10
2023-04-03T10:03:48.203Z,38.90
2023-04-03T10:06:14.672Z,39.80
2023-04-03T10:08:41.160Z,40.20
2023-04-03T10:11:07.615Z,39.90
2023-04-03T10:13:36.251Z,39.60
2023-04-03T10:16:08.458Z,40.00
2023-04-03T10:18:35.103Z,39.90
2023-04-03T10:21:01.591Z,40.00
2023-04-03T10:23:28.098Z,39.50
2023-04-03T10:25:54.594Z,39.90
2023-04-03T10:28:21.118Z,39.20
2023-04-03T10:30:47.643Z,39.50
2023-04-03T10:33:14.163Z,39.20
2023-04-03T10:35:40.712Z,39.80
2023-04-03T10:38:07.209Z,39.00
2023-04-03T10:40:33.693Z,39.20
2023-04-03T10:43:00.176Z,39.10
2023-04-03T10:45:26.659Z,39.00
2023-04-03T10:47:53.164Z,39.00
2023-04-03T10:50:19.648Z,40.20
2023-04-03T10:52:46.165Z,39.20
2023-04-03T10:55:12.642Z,39.20
2023-04-03T10:57:39.116Z,39.10
2023-04-03T11:00:05.659Z,39.60
2023-04-03T11:02:32.331Z,39.00
2023-04-03T11:04:58.910Z,39.00
2023-04-03T11:07:25.412Z,38.90
2023-04-03T11:09:51.864Z,38.80
2023-04-03T11:12:18.368Z,39.40
2023-04-03T11:14:44.834Z,39.10
2023-04-03T11:17:11.345Z,39.60
2023-04-03T11:19:37.841Z,39.20
2023-04-03T11:22:04.373Z,38.90
2023-04-03T11:24:30.856Z,39.00
2023-04-03T11:26:57.329Z,38.50
2023-04-03T11:29:34.138Z,38.80
2023-04-03T11:32:01.757Z,39.50
2023-04-03T11:34:28.252Z,38.90
2023-04-03T11:36:54.774Z,39.30
2023-04-03T11:39:21.584Z,39.00
2023-04-03T11:41:48.154Z,39.00
2023-04-03T11:44:14.732Z,38.90
2023-04-03T11:46:41.273Z,39.40
2023-04-03T11:49:07.756Z,38.90
2023-04-03T11:51:34.292Z,39.00
2023-04-03T11:54:00.754Z,38.80
2023-04-03T11:56:27.219Z,39.40
2023-04-03T11:58:53.721Z,38.80
2023-04-03T12:01:20.223Z,38.80
2023-04-03T12:03:46.863Z,38.80
2023-04-03T12:06:13.486Z,38.50
2023-04-03T12:08:40.013Z,39.00
2023-04-03T12:11:06.473Z,38.60
2023-04-03T12:13:32.932Z,39.20
2023-04-03T12:15:59.412Z,38.60
2023-04-03T12:18:25.979Z,39.00
2023-04-03T12:20:52.625Z,39.50
2023-04-03T12:23:19.140Z,38.90
2023-04-03T12:25:45.625Z,38.80
2023-04-03T12:28:12.098Z,39.00
2023-04-03T12:30:38.668Z,39.00
2023-04-03T12:33:12.800Z,38.90
2023-04-03T12:35:40.656Z,38.90
2023-04-03T12:38:07.346Z,38.90
2023-04-03T12:40:33.861Z,38.70
2023-04-03T12:43:01.287Z,39.00
2023-04-03T12:45:29.473Z,39.50
2023-04-03T12:47:56.033Z,39.10
2023-04-03T12:50:22.569Z,38.90
2023-04-03T12:52:49.075Z,38.90
2023-04-03T12:55:15.613Z,39.50
2023-04-03T12:57:42.083Z,38.90
2023-04-03T13:00:08.894Z,38.90
2023-04-03T13:05:02.564Z,38.80
2023-04-03T13:07:29.040Z,40.00
2023-04-03T13:09:55.536Z,38.60
2023-04-03T13:12:22.010Z,39.50
2023-04-03T13:14:48.548Z,39.20
2023-04-03T13:17:15.028Z,39.40
2023-04-03T13:19:41.556Z,39.40
2023-04-03T13:24:35.172Z,38.90
2023-04-03T13:27:01.695Z,39.50
2023-04-03T13:29:31.462Z,38.40
2023-04-03T13:31:58.462Z,38.80
2023-04-03T13:34:24.992Z,38.80
2023-04-03T13:36:51.452Z,39.40
2023-04-03T13:39:17.920Z,38.90
2023-04-03T13:41:44.382Z,39.40
2023-04-03T13:44:12.738Z,38.80
2023-04-03T13:46:39.358Z,39.40
2023-04-03T13:49:05.829Z,39.10
2023-04-03T13:51:32.320Z,38.90
2023-04-03T13:53:58.840Z,39.50
2023-04-03T13:56:25.336Z,39.40
2023-04-03T13:58:51.846Z,38.90
2023-04-03T14:01:18.351Z,38.60
2023-04-03T14:03:44.900Z,38.60
2023-04-03T14:06:11.624Z,38.90
2023-04-03T14:08:43.036Z,39.00
2023-04-03T14:11:10.369Z,38.80
2023-04-03T14:13:36.850Z,38.70
2023-04-03T14:16:15.024Z,39.40
2023-04-03T14:18:42.309Z,39.30
2023-04-03T14:21:08.788Z,38.90
2023-04-03T14:23:35.265Z,39.20
2023-04-03T14:26:01.713Z,39.50
2023-04-03T14:28:28.165Z,39.20
2023-04-03T14:30:54.635Z,39.30
2023-04-03T14:33:21.138Z,39.20
2023-04-03T14:35:47.704Z,38.90
2023-04-03T14:38:14.205Z,39.40
2023-04-03T14:40:40.745Z,39.00
2023-04-03T14:43:07.278Z,39.50
2023-04-03T14:45:33.769Z,39.20
2023-04-03T14:48:00.350Z,39.30
2023-04-03T14:50:26.906Z,39.30
2023-04-03T14:52:53.378Z,38.90
2023-04-03T14:55:19.830Z,39.10
2023-04-03T14:57:46.325Z,38.90
2023-04-03T15:00:12.819Z,39.40
2023-04-03T15:02:39.591Z,39.00
2023-04-03T15:05:06.374Z,39.40
2023-04-03T15:07:32.855Z,39.40
2023-04-03T15:09:59.347Z,39.10
2023-04-03T15:12:25.877Z,38.80
2023-04-03T15:14:59.482Z,39.60
2023-04-03T15:17:28.497Z,39.30
2023-04-03T15:19:54.999Z,39.30
2023-04-03T15:22:21.535Z,38.90
2023-04-03T15:24:48.013Z,39.00
2023-04-03T15:27:14.533Z,39.10
2023-04-03T15:29:41.028Z,39.60
2023-04-03T15:32:07.540Z,38.90
2023-04-03T15:34:34.102Z,39.30
2023-04-03T15:37:00.629Z,39.60
2023-04-03T15:39:27.109Z,39.70
2023-04-03T15:41:53.599Z,39.10
2023-04-03T15:44:20.141Z,39.10
2023-04-03T15:46:46.634Z,39.10
2023-04-03T15:49:13.139Z,39.10
2023-04-03T15:51:39.682Z,39.00
2023-04-03T15:54:06.151Z,38.80
2023-04-03T15:56:32.608Z,39.40
2023-04-03T15:58:59.058Z,39.00
2023-04-03T16:01:25.589Z,38.80
2023-04-03T16:03:52.123Z,38.90
2023-04-03T16:06:18.630Z,39.40
2023-04-03T16:08:45.142Z,38.80
2023-04-03T16:11:11.612Z,39.20
2023-04-03T16:13:38.131Z,38.70
2023-04-03T16:16:04.662Z,39.20
2023-04-03T16:18:31.216Z,39.20
2023-04-03T16:20:57.754Z,39.20
2023-04-03T16:23:24.272Z,38.60
2023-04-03T16:25:50.787Z,38.70
2023-04-03T16:28:17.306Z,39.00
2023-04-03T16:30:43.793Z,38.80
2023-04-03T16:33:10.285Z,38.70
2023-04-03T16:35:36.903Z,39.30
2023-04-03T16:38:03.586Z,38.90
2023-04-03T16:40:30.108Z,38.80
2023-04-03T16:42:56.641Z,39.10
2023-04-03T16:45:23.137Z,39.00
2023-04-03T16:47:49.653Z,38.50
2023-04-03T16:50:16.188Z,38.50
2023-04-03T16:52:42.710Z,38.40
2023-04-03T16:55:09.211Z,39.00
2023-04-03T16:57:35.656Z,38.80
2023-04-03T17:00:02.144Z,39.30
2023-04-03T17:02:28.695Z,38.50
2023-04-03T17:04:55.187Z,38.60
2023-04-03T17:07:21.688Z,39.20
2023-04-03T17:09:48.193Z,39.10
2023-04-03T17:12:14.689Z,38.90
2023-04-03T17:14:41.161Z,39.30
2023-04-03T17:17:07.605Z,39.40
2023-04-03T17:19:34.091Z,38.90
2023-04-03T17:22:00.606Z,39.40
2023-04-03T17:24:27.082Z,38.80
2023-04-03T17:26:53.558Z,38.80
2023-04-03T17:29:20.009Z,38.80
2023-04-03T17:31:46.553Z,39.50
2023-04-03T17:34:13.038Z,38.70
2023-04-03T17:36:39.539Z,40.00
2023-04-03T17:39:06.064Z,39.30
2023-04-03T17:41:32.575Z,38.80
2023-04-03T17:43:59.110Z,38.90
2023-04-03T17:46:25.654Z,39.20
2023-04-03T17:48:52.198Z,39.20
2023-04-03T17:51:18.703Z,38.70
2023-04-03T17:53:45.292Z,39.20
2023-04-03T17:56:11.790Z,39.20
2023-04-03T17:58:38.310Z,39.10
2023-04-03T18:01:04.855Z,39.10
2023-04-03T18:03:31.418Z,39.10
2023-04-03T18:05:57.947Z,39.10
2023-04-03T18:08:24.459Z,39.00
2023-04-03T18:10:51.009Z,39.10
2023-04-03T18:13:17.468Z,39.10
2023-04-03T18:15:44.010Z,38.60
2023-04-03T18:18:10.557Z,39.00
2023-04-03T18:20:37.152Z,39.00
2023-04-03T18:23:03.655Z,38.60
2023-04-03T18:25:30.229Z,39.00
2023-04-03T18:27:56.803Z,39.00
2023-04-03T18:30:23.298Z,39.10
2023-04-03T18:32:49.827Z,39.10
2023-04-03T18:35:16.340Z,38.60
2023-04-03T18:37:42.839Z,39.10
2023-04-03T18:40:09.309Z,38.50
2023-04-03T18:42:35.814Z,39.00
2023-04-03T18:45:02.319Z,39.10
2023-04-03T18:47:28.869Z,39.10
2023-04-03T18:49:55.426Z,39.10
2023-04-03T18:52:21.910Z,39.10
2023-04-03T18:54:48.413Z,39.10
2023-04-03T18:57:14.903Z,39.10
2023-04-03T18:59:41.454Z,38.90
2023-04-03T19:02:07.944Z,39.00
2023-04-03T19:04:34.406Z,38.30
2023-04-03T19:07:00.871Z,38.80
2023-04-03T19:09:27.345Z,38.70
2023-04-03T19:11:53.832Z,38.20
2023-04-03T19:14:20.320Z,38.60
2023-04-03T19:16:46.901Z,38.60
2023-04-03T19:19:13.417Z,38.70
2023-04-03T19:21:39.889Z,38.70
2023-04-03T19:24:06.366Z,38.70
2023-04-03T19:26:32.883Z,38.70
2023-04-03T19:28:59.379Z,38.70
2023-04-03T19:31:25.904Z,39.20
2023-04-03T19:33:52.408Z,38.00
2023-04-03T19:36:18.926Z,38.50
2023-04-03T19:38:45.450Z,38.50
2023-04-03T19:41:11.949Z,38.50
2023-04-03T19:43:38.395Z,37.90
2023-04-03T19:46:05.643Z,38.50
2023-04-03T19:48:33.479Z,38.60
2023-04-03T19:50:59.977Z,38.60
2023-04-03T19:53:26.470Z,38.50
2023-04-03T19:55:52.949Z,38.50
2023-04-03T19:58:19.469Z,38.50
2023-04-03T20:00:45.938Z,38.30
2023-04-03T20:03:12.475Z,38.20
2023-04-03T20:05:38.974Z,38.30
2023-04-03T20:08:05.537Z,38.30
2023-04-03T20:10:32.005Z,38.30
2023-04-03T20:12:58.466Z,37.80
2023-04-03T20:15:24.974Z,38.20
2023-04-03T20:17:51.641Z,37.60
2023-04-03T20:20:18.188Z,38.20
2023-04-03T20:22:44.697Z,38.20
2023-04-03T20:27:37.627Z,38.20
2023-04-03T20:30:04.409Z,38.30
2023-04-03T20:32:31.004Z,38.10
2023-04-03T20:35:03.930Z,37.60
2023-04-03T20:37:31.299Z,37.40
2023-04-03T20:39:57.813Z,38.10
2023-04-03T20:42:24.283Z,38.10
2023-04-03T20:44:50.820Z,37.50
2023-04-03T20:47:17.360Z,38.10
2023-04-03T20:49:43.855Z,38.10
2023-04-03T20:52:10.300Z,38.10
2023-04-03T20:54:36.763Z,37.50
2023-04-03T20:57:03.262Z,37.40
2023-04-03T20:59:29.760Z,38.00
2023-04-03T21:01:56.304Z,38.00
2023-04-03T21:04:22.805Z,38.00
2023-04-03T21:06:49.303Z,37.90
2023-04-03T21:09:15.826Z,37.90
2023-04-03T21:11:42.444Z,38.50
2023-04-03T21:14:08.923Z,37.40
2023-04-03T21:16:35.396Z,37.90
2023-04-03T21:19:01.972Z,37.70
2023-04-03T21:21:28.487Z,37.80
2023-04-03T21:23:54.961Z,37.80
2023-04-03T21:26:21.510Z,37.70
2023-04-03T21:28:48.098Z,37.30
2023-04-03T21:31:14.585Z,38.50
2023-04-03T21:33:41.084Z,37.70
2023-04-03T21:36:07.566Z,37.20
2023-04-03T21:38:34.109Z,37.60
2023-04-03T21:41:00.608Z,37.80
2023-04-03T21:43:27.137Z,37.20
2023-04-03T21:45:53.653Z,37.80
2023-04-03T21:48:20.209Z,38.40
2023-04-03T21:50:46.673Z,37.80
2023-04-03T21:53:13.173Z,37.40
2023-04-03T21:55:39.671Z,37.90
2023-04-03T21:58:06.185Z,37.40
2023-04-03T22:00:32.760Z,37.80
2023-04-03T22:03:09.906Z,37.80
2023-04-03T22:05:37.400Z,37.90
2023-04-03T22:08:04.027Z,37.90
2023-04-03T22:10:30.536Z,37.40
2023-04-03T22:12:57.034Z,37.60
2023-04-03T22:15:23.559Z,37.20
2023-04-03T22:17:50.072Z,37.70
2023-04-03T22:20:16.615Z,37.60
2023-04-03T22:22:43.108Z,37.10
2023-04-03T22:25:09.608Z,37.60
2023-04-03T22:27:36.112Z,37.60
2023-04-03T22:30:02.581Z,36.90
2023-04-03T22:32:29.130Z,37.50
2023-04-03T22:34:55.624Z,37.10
2023-04-03T22:37:22.132Z,37.60
2023-04-03T22:39:48.684Z,37.50
2023-04-03T22:42:15.200Z,37.50
2023-04-03T22:44:41.699Z,36.80
2023-04-03T22:47:08.182Z,36.60
2023-04-03T22:49:34.699Z,37.50
2023-04-03T22:52:01.182Z,37.40
2023-04-03T22:54:27.673Z,36.70
2023-04-03T22:56:54.198Z,37.30
2023-04-03T22:59:20.723Z,37.30
2023-04-03T23:01:47.247Z,37.40
2023-04-03T23:04:13.755Z,36.80
2023-04-03T23:06:40.245Z,37.30
2023-04-03T23:09:06.725Z,37.20
2023-04-03T23:11:33.217Z,36.60
2023-04-03T23:13:59.673Z,36.50
2023-04-03T23:16:26.151Z,37.00
2023-04-03T23:18:52.654Z,37.00
2023-04-03T23:21:19.166Z,37.10
2023-04-03T23:23:45.673Z,37.10
2023-04-03T23:26:12.186Z,37.10
2023-04-03T23:28:38.657Z,37.10
2023-04-03T23:31:05.149Z,37.00
2023-04-03T23:33:32.006Z,37.00
2023-04-03T23:35:58.896Z,37.00
2023-04-03T23:38:25.404Z,37.00
2023-04-03T23:40:51.848Z,37.10
2023-04-03T23:43:18.351Z,37.00
2023-04-03T23:45:44.890Z,37.00
2023-04-03T23:48:11.476Z,36.90
2023-04-03T23:50:38.104Z,37.00
2023-04-03T23:53:04.782Z,36.40
2023-04-03T23:55:31.248Z,36.90
2023-04-03T23:57:57.772Z,36.90
